Time;durP1;ratioP1;P1;durP2;ratioP2;P2;SDS_P1;SDS_P2;PMS_P1;PMS_P2;Temp;Humidity;BMP_temperature;BMP_pressure;BME280_temperature;BME280_humidity;BME280_pressure;Samples;Min_cycle;Max_cycle;Signal;HPM_P1;HPM_P2
2023/05/16 00:00:16;;;;;;;20.95;11.18;;;14.80;57.90;;;;;;5023982;28;20053;-43
2023/05/16 00:02:44;;;;;;;20.48;10.82;;;14.80;58.20;;;;;;5024824;28;20481;-49
2023/05/16 00:05:13;;;;;;;20.58;11.88;;;14.80;58.30;;;;;;5024744;28;20049;-45
2023/05/16 00:07:43;;;;;;;17.05;10.35;;;14.80;58.50;;;;;;5027539;28;20068;-43
2023/05/16 00:10:10;;;;;;;17.80;10.60;;;14.80;58.70;;;;;;5025869;28;20049;-42
2023/05/16 00:12:38;;;;;;;23.83;12.65;;;14.80;58.70;;;;;;5025674;28;20045;-43
2023/05/16 00:15:07;;;;;;;20.58;12.35;;;14.80;58.90;;;;;;5024655;28;20053;-45
2023/05/16 00:17:36;;;;;;;19.48;11.52;;;14.80;59.10;;;;;;5024549;28;20056;-48
2023/05/16 00:20:09;;;;;;;21.58;12.27;;;14.80;59.30;;;;;;5024309;28;20064;-47
2023/05/16 00:22:37;;;;;;;20.27;10.90;;;14.80;59.30;;;;;;5024381;28;20053;-45
2023/05/16 00:25:05;;;;;;;19.17;11.10;;;14.80;59.50;;;;;;5025257;28;20053;-43
2023/05/16 00:27:34;;;;;;;17.88;9.10;;;14.80;59.70;;;;;;5023522;28;20072;-45
2023/05/16 00:30:01;;;;;;;14.80;8.05;;;14.70;59.70;;;;;;5023891;28;20053;-42
2023/05/16 00:32:28;;;;;;;20.55;8.10;;;14.70;59.90;;;;;;5022913;28;20060;-45
2023/05/16 00:34:57;;;;;;;15.80;6.40;;;14.60;60.20;;;;;;5024496;28;20053;-48
2023/05/16 00:37:24;;;;;;;14.65;6.07;;;14.60;60.50;;;;;;5024684;28;20053;-46
2023/05/16 00:39:51;;;;;;;14.02;6.70;;;14.50;60.80;;;;;;5024861;28;20052;-44
2023/05/16 00:42:20;;;;;;;11.88;5.38;;;14.40;61.30;;;;;;5025935;28;20049;-49
2023/05/16 00:44:47;;;;;;;10.50;5.82;;;14.30;61.40;;;;;;5024891;28;20063;-46
2023/05/16 00:47:14;;;;;;;11.77;5.82;;;14.30;61.80;;;;;;5021663;28;20517;-49
2023/05/16 00:49:42;;;;;;;10.18;4.95;;;14.20;62.10;;;;;;5023377;28;20519;-46
2023/05/16 00:52:11;;;;;;;11.98;5.40;;;14.20;62.30;;;;;;5025532;28;20060;-46
2023/05/16 00:54:38;;;;;;;8.23;4.88;;;14.10;62.50;;;;;;5024509;28;20049;-45
2023/05/16 00:57:06;;;;;;;9.45;4.60;;;14.10;62.70;;;;;;5022748;28;20056;-45
2023/05/16 00:59:34;;;;;;;9.60;4.25;;;14.10;62.70;;;;;;5025684;28;20053;-44
2023/05/16 01:02:01;;;;;;;8.65;3.42;;;14.00;62.80;;;;;;5062875;23;20044;-57
2023/05/16 01:04:30;;;;;;;8.93;4.50;;;14.00;63.00;;;;;;5054038;28;20060;-50
2023/05/16 01:06:58;;;;;;;6.97;3.67;;;13.90;63.00;;;;;;5055433;28;20057;-49
2023/05/16 01:09:27;;;;;;;7.50;4.13;;;13.90;63.30;;;;;;5057865;28;20467;-53
2023/05/16 01:12:01;;;;;;;13.05;4.90;;;13.90;63.50;;;;;;5057569;28;20052;-54
2023/05/16 01:14:38;;;;;;;13.65;5.65;;;13.80;63.60;;;;;;5052111;28;20051;-55
2023/05/16 01:17:11;;;;;;;10.40;6.65;;;13.80;64.00;;;;;;5045240;28;20064;-52
2023/05/16 01:19:53;;;;;;;11.15;7.85;;;13.80;64.20;;;;;;5051980;28;20057;-53
2023/05/16 01:22:30;;;;;;;12.05;8.38;;;13.70;64.60;;;;;;5055300;28;20061;-58
2023/05/16 01:25:06;;;;;;;14.02;9.05;;;13.70;65.00;;;;;;5056588;28;20519;-55
2023/05/16 01:27:35;;;;;;;12.10;9.50;;;13.60;65.20;;;;;;5053742;28;20053;-47
2023/05/16 01:30:14;;;;;;;13.23;10.63;;;13.60;65.20;;;;;;5049194;28;20060;-51
2023/05/16 01:32:42;;;;;;;14.20;10.40;;;13.60;65.70;;;;;;5056814;28;20850;-50
2023/05/16 01:35:12;;;;;;;13.15;10.52;;;13.60;65.60;;;;;;5054121;28;20063;-52
2023/05/16 01:37:44;;;;;;;12.90;9.95;;;13.60;65.70;;;;;;5050061;28;20063;-48
2023/05/16 01:40:18;;;;;;;12.38;9.73;;;13.60;65.90;;;;;;5046535;28;20678;-47
2023/05/16 01:42:50;;;;;;;13.18;9.20;;;13.60;66.00;;;;;;5057825;28;20404;-49
2023/05/16 01:45:23;;;;;;;12.50;10.90;;;13.60;66.10;;;;;;5051336;28;20060;-47
2023/05/16 01:47:57;;;;;;;12.00;10.70;;;13.60;66.10;;;;;;5054400;28;20060;-50
2023/05/16 01:50:27;;;;;;;13.60;11.35;;;13.60;66.20;;;;;;5055942;28;20049;-56
2023/05/16 01:53:00;;;;;;;16.45;11.63;;;13.60;66.20;;;;;;5056396;28;20057;-46
2023/05/16 01:55:35;;;;;;;16.63;11.35;;;13.60;66.40;;;;;;5053230;28;20063;-53
2023/05/16 01:58:07;;;;;;;15.15;11.23;;;13.60;66.60;;;;;;5057046;28;20409;-48
2023/05/16 02:00:35;;;;;;;15.25;11.18;;;13.50;66.50;;;;;;5047674;28;20057;-57
2023/05/16 02:03:02;;;;;;;12.80;9.55;;;13.50;66.60;;;;;;5053762;28;20135;-50
2023/05/16 02:05:29;;;;;;;13.63;9.55;;;13.50;66.80;;;;;;5056870;28;20456;-58
2023/05/16 02:07:56;;;;;;;12.32;9.93;;;13.50;67.10;;;;;;5054018;28;20059;-56
2023/05/16 02:10:24;;;;;;;9.27;7.97;;;13.50;67.10;;;;;;5052983;28;20055;-57
2023/05/16 02:12:53;;;;;;;9.95;7.75;;;13.50;67.20;;;;;;5048754;28;20048;-52
2023/05/16 02:15:21;;;;;;;9.20;6.75;;;13.40;67.40;;;;;;5051521;28;20439;-60
2023/05/16 02:17:48;;;;;;;7.80;6.10;;;13.40;67.50;;;;;;5058751;28;20052;-54
2023/05/16 02:20:16;;;;;;;9.88;7.75;;;13.40;67.60;;;;;;5052753;28;20071;-56
2023/05/16 02:22:46;;;;;;;11.73;7.45;;;13.40;67.70;;;;;;5053275;28;20052;-52
2023/05/16 02:25:14;;;;;;;9.00;6.22;;;13.30;68.00;;;;;;5053299;28;20049;-56
2023/05/16 02:27:42;;;;;;;10.13;6.18;;;13.30;68.20;;;;;;5055113;28;20056;-58
2023/05/16 02:30:11;;;;;;;7.53;5.60;;;13.30;68.10;;;;;;5058386;28;20061;-52
2023/05/16 02:32:40;;;;;;;7.75;5.57;;;13.30;68.20;;;;;;5051069;28;20488;-54
2023/05/16 02:35:08;;;;;;;6.97;5.03;;;13.20;68.20;;;;;;5053509;28;20057;-54
2023/05/16 02:37:35;;;;;;;7.15;5.38;;;13.20;68.20;;;;;;5039084;28;20477;-49
2023/05/16 02:40:04;;;;;;;7.15;5.40;;;13.20;69.00;;;;;;5054242;28;20377;-48
2023/05/16 02:42:31;;;;;;;8.48;5.47;;;13.20;68.30;;;;;;5058754;28;20053;-49
2023/05/16 02:44:59;;;;;;;6.63;5.10;;;13.10;68.50;;;;;;5059758;28;20056;-57
2023/05/16 02:47:26;;;;;;;7.22;5.60;;;13.10;68.40;;;;;;5053093;28;20053;-56
2023/05/16 02:49:55;;;;;;;6.30;4.97;;;13.00;68.50;;;;;;5054845;28;20061;-56
2023/05/16 02:52:22;;;;;;;8.35;5.30;;;12.90;68.80;;;;;;5059484;28;20053;-59
2023/05/16 02:54:50;;;;;;;7.68;5.65;;;12.90;68.80;;;;;;5054976;28;20515;-59
2023/05/16 02:57:17;;;;;;;8.73;5.65;;;12.90;69.00;;;;;;5059660;28;20356;-54
2023/05/16 02:59:44;;;;;;;7.90;5.80;;;12.80;69.30;;;;;;5062290;28;20052;-57
2023/05/16 03:02:11;;;;;;;7.40;5.85;;;12.80;69.40;;;;;;5061165;28;20052;-57
2023/05/16 03:04:38;;;;;;;8.18;5.97;;;12.70;69.70;;;;;;5057057;28;20486;-59
2023/05/16 03:07:07;;;;;;;9.98;5.93;;;12.60;69.70;;;;;;5058715;28;20056;-57
2023/05/16 03:09:34;;;;;;;8.07;6.00;;;12.60;70.30;;;;;;5054277;28;20052;-58
2023/05/16 03:12:01;;;;;;;7.20;5.50;;;12.60;70.20;;;;;;5056169;28;20053;-53
2023/05/16 03:14:28;;;;;;;5.82;5.22;;;12.60;70.40;;;;;;5031393;28;20053;-57
2023/05/16 03:16:56;;;;;;;6.20;5.00;;;12.50;70.40;;;;;;5008072;28;20069;-59
2023/05/16 03:19:23;;;;;;;6.72;5.22;;;12.50;70.30;;;;;;5014706;28;21019;-57
2023/05/16 03:21:50;;;;;;;7.35;5.57;;;12.50;70.70;;;;;;5013690;28;20058;-54
2023/05/16 03:24:21;;;;;;;6.65;5.43;;;12.50;70.50;;;;;;5017631;28;20065;-58
2023/05/16 03:26:48;;;;;;;6.05;5.20;;;12.40;70.50;;;;;;5017513;28;20050;-58
2023/05/16 03:29:16;;;;;;;5.97;5.05;;;12.40;70.70;;;;;;5016144;28;20041;-58
2023/05/16 03:31:43;;;;;;;5.22;4.57;;;12.30;70.70;;;;;;5015973;28;20045;-58
2023/05/16 03:34:10;;;;;;;7.55;5.43;;;12.30;70.70;;;;;;5017809;28;20141;-58
2023/05/16 03:36:39;;;;;;;8.18;5.00;;;12.30;70.90;;;;;;5017812;28;20490;-57
2023/05/16 03:39:07;;;;;;;9.35;5.20;;;12.20;70.90;;;;;;5013250;28;20057;-56
2023/05/16 03:41:36;;;;;;;8.23;5.32;;;12.20;70.90;;;;;;5007077;28;20054;-54
2023/05/16 03:44:03;;;;;;;6.38;5.00;;;12.20;70.90;;;;;;5017641;28;20054;-57
2023/05/16 03:46:30;;;;;;;5.55;4.80;;;12.20;71.10;;;;;;5015472;28;20058;-58
2023/05/16 03:48:57;;;;;;;7.43;5.07;;;12.20;71.20;;;;;;5017977;28;20054;-56
2023/05/16 03:51:25;;;;;;;6.00;3.40;;;12.10;71.10;;;;;;5010832;28;20056;-49
2023/05/16 03:53:52;;;;;;;6.82;3.63;;;12.10;70.50;;;;;;5002034;28;20056;-58
2023/05/16 03:56:20;;;;;;;6.47;3.63;;;12.00;70.20;;;;;;5009269;28;20452;-57
2023/05/16 03:58:49;;;;;;;6.57;3.75;;;12.00;70.10;;;;;;5003870;28;20099;-60
2023/05/16 04:01:16;;;;;;;6.13;3.78;;;12.00;70.30;;;;;;5010735;28;20046;-54
2023/05/16 04:03:43;;;;;;;4.65;3.72;;;12.00;70.60;;;;;;5012507;28;21147;-57
2023/05/16 04:06:10;;;;;;;11.50;4.10;;;11.90;70.90;;;;;;5013597;28;20054;-57
2023/05/16 04:08:39;;;;;;;5.25;3.70;;;11.90;71.00;;;;;;5012330;28;20053;-58
2023/05/16 04:11:07;;;;;;;7.50;3.90;;;11.80;71.00;;;;;;5017371;28;20050;-58
2023/05/16 04:13:34;;;;;;;8.27;3.58;;;11.80;71.10;;;;;;5009243;28;20072;-59
2023/05/16 04:16:02;;;;;;;8.65;3.67;;;11.80;71.10;;;;;;5010583;28;20061;-58
2023/05/16 04:18:30;;;;;;;5.80;3.30;;;11.70;71.10;;;;;;5007106;28;21344;-55
2023/05/16 04:20:57;;;;;;;6.97;2.95;;;11.60;71.60;;;;;;5014044;28;20053;-46
2023/05/16 04:23:24;;;;;;;7.80;2.42;;;11.60;70.90;;;;;;5009205;28;20137;-55
2023/05/16 04:25:51;;;;;;;10.95;2.80;;;11.50;70.60;;;;;;5014910;28;20476;-52
2023/05/16 04:28:18;;;;;;;9.38;2.85;;;11.50;70.50;;;;;;5008127;28;20377;-51
2023/05/16 04:30:46;;;;;;;7.03;2.67;;;11.40;70.80;;;;;;5004314;28;20489;-56
2023/05/16 04:33:15;;;;;;;8.55;3.25;;;11.30;70.90;;;;;;5014713;28;20045;-50
2023/05/16 04:35:42;;;;;;;6.47;2.33;;;11.30;71.20;;;;;;5006378;28;20050;-56
2023/05/16 04:38:10;;;;;;;6.13;2.72;;;11.30;71.20;;;;;;5014497;28;20064;-56
2023/05/16 04:40:37;;;;;;;9.57;3.00;;;11.20;71.30;;;;;;5008935;28;20076;-53
2023/05/16 04:43:05;;;;;;;6.50;2.92;;;11.20;71.60;;;;;;5014405;28;20049;-46
2023/05/16 04:45:32;;;;;;;8.18;2.85;;;11.10;71.90;;;;;;5006951;28;20524;-50
2023/05/16 04:48:01;;;;;;;7.65;4.28;;;11.10;71.90;;;;;;5014146;28;20050;-51
2023/05/16 04:50:29;;;;;;;9.90;3.75;;;11.10;72.10;;;;;;5012901;28;20396;-54
2023/05/16 04:52:57;;;;;;;9.15;3.13;;;11.10;72.30;;;;;;5015818;28;20060;-58
2023/05/16 04:55:24;;;;;;;7.55;3.30;;;11.10;72.30;;;;;;5017077;28;20060;-58
2023/05/16 04:57:51;;;;;;;9.80;3.35;;;11.00;72.50;;;;;;5018293;28;20484;-58
2023/05/16 05:00:19;;;;;;;10.90;3.25;;;11.00;72.30;;;;;;5009198;28;20073;-57
2023/05/16 05:02:46;;;;;;;12.65;3.38;;;11.00;72.30;;;;;;4986372;28;20516;-57
2023/05/16 05:05:14;;;;;;;10.20;3.08;;;11.00;72.40;;;;;;4997303;28;20058;-56
2023/05/16 05:07:42;;;;;;;14.85;3.97;;;11.00;72.50;;;;;;4992110;28;20049;-57
2023/05/16 05:10:11;;;;;;;13.98;3.58;;;11.00;72.70;;;;;;4991754;28;20061;-59
2023/05/16 05:12:38;;;;;;;16.45;3.38;;;11.00;72.70;;;;;;4992274;28;20042;-57
2023/05/16 05:15:06;;;;;;;9.32;3.33;;;11.00;72.70;;;;;;4991665;28;20046;-57
2023/05/16 05:17:34;;;;;;;13.15;3.60;;;11.00;72.80;;;;;;4984917;28;20508;-58
2023/05/16 05:20:05;;;;;;;13.65;4.50;;;11.00;73.50;;;;;;4992224;28;20058;-56
2023/05/16 05:22:32;;;;;;;11.23;3.65;;;11.00;72.80;;;;;;4991701;28;20058;-58
2023/05/16 05:25:01;;;;;;;13.10;4.25;;;11.00;72.70;;;;;;4990674;28;20057;-58
2023/05/16 05:27:30;;;;;;;15.95;5.05;;;11.10;72.80;;;;;;4991553;28;20057;-56
2023/05/16 05:29:57;;;;;;;19.50;4.70;;;11.00;72.60;;;;;;4988945;28;20134;-57
2023/05/16 05:32:25;;;;;;;13.77;4.57;;;11.00;72.90;;;;;;4990891;28;20046;-59
2023/05/16 05:34:52;;;;;;;12.80;4.45;;;11.00;73.10;;;;;;4991243;28;20064;-57
2023/05/16 05:37:19;;;;;;;14.23;5.30;;;11.00;73.10;;;;;;4997013;28;20065;-58
2023/05/16 05:39:47;;;;;;;18.92;5.35;;;11.10;73.10;;;;;;4992915;28;20049;-55
2023/05/16 05:42:15;;;;;;;18.35;5.50;;;11.10;73.10;;;;;;4997736;28;20076;-59
2023/05/16 05:44:43;;;;;;;20.05;5.18;;;11.10;73.10;;;;;;4984306;28;20066;-58
2023/05/16 05:47:10;;;;;;;18.70;6.22;;;11.10;73.10;;;;;;4979342;28;20069;-57
2023/05/16 05:49:38;;;;;;;24.88;7.22;;;11.10;73.00;;;;;;4995368;28;20504;-58
2023/05/16 05:52:05;;;;;;;19.80;7.25;;;11.10;72.80;;;;;;4994393;28;20054;-58
2023/05/16 05:54:33;;;;;;;23.63;6.57;;;11.10;72.60;;;;;;5001519;28;20073;-59
2023/05/16 05:57:00;;;;;;;18.98;6.80;;;11.10;72.60;;;;;;4992793;28;20057;-58
2023/05/16 05:59:29;;;;;;;20.63;7.80;;;11.10;72.60;;;;;;4998101;28;20494;-58
2023/05/16 06:01:56;;;;;;;23.20;8.45;;;11.10;72.60;;;;;;5006949;28;20068;-52
2023/05/16 06:04:24;;;;;;;25.55;7.93;;;11.00;72.40;;;;;;5017588;28;20056;-58
2023/05/16 06:06:51;;;;;;;27.13;8.13;;;11.00;72.30;;;;;;5015035;28;20058;-49
2023/05/16 06:09:19;;;;;;;36.67;8.35;;;11.00;72.10;;;;;;5017994;28;20060;-57
2023/05/16 06:11:47;;;;;;;27.05;7.80;;;11.00;72.10;;;;;;5018910;28;20061;-57
2023/05/16 06:14:15;;;;;;;26.40;7.30;;;11.00;71.80;;;;;;5016454;28;20050;-51
2023/05/16 06:16:43;;;;;;;26.52;6.60;;;11.00;71.90;;;;;;5017036;28;20426;-56
2023/05/16 06:19:14;;;;;;;21.35;6.43;;;10.90;71.90;;;;;;5019974;28;20516;-58
2023/05/16 06:21:41;;;;;;;21.90;6.30;;;10.90;71.90;;;;;;5021116;28;20054;-57
2023/05/16 06:24:10;;;;;;;32.17;6.65;;;10.90;71.90;;;;;;5015001;28;20409;-58
2023/05/16 06:26:37;;;;;;;26.83;5.57;;;10.90;71.80;;;;;;5017011;28;20057;-46
2023/05/16 06:29:04;;;;;;;21.92;5.70;;;10.90;71.50;;;;;;5016666;28;20358;-56
2023/05/16 06:31:31;;;;;;;26.25;4.85;;;10.90;71.40;;;;;;5017091;28;20060;-51
2023/05/16 06:34:00;;;;;;;30.55;5.88;;;10.80;71.30;;;;;;5021614;28;20382;-46
2023/05/16 06:36:27;;;;;;;19.58;5.03;;;10.90;71.30;;;;;;5021405;28;20053;-59
2023/05/16 06:38:57;;;;;;;23.17;4.65;;;10.90;71.00;;;;;;5024006;28;20408;-58
2023/05/16 06:41:25;;;;;;;19.40;4.65;;;10.90;70.80;;;;;;5023463;28;20400;-57
2023/05/16 06:43:52;;;;;;;23.98;4.80;;;10.90;70.70;;;;;;5022023;28;20416;-55
2023/05/16 06:46:19;;;;;;;27.17;5.57;;;10.90;70.80;;;;;;5013556;28;20058;-46
2023/05/16 06:48:47;;;;;;;26.73;6.07;;;10.90;70.80;;;;;;5023505;28;20061;-53
2023/05/16 06:51:15;;;;;;;27.90;5.22;;;10.90;70.70;;;;;;5016251;28;20393;-56
2023/05/16 06:53:42;;;;;;;23.35;5.28;;;10.90;70.50;;;;;;5021633;28;20054;-49
2023/05/16 06:56:10;;;;;;;18.13;3.92;;;10.90;70.80;;;;;;5022467;28;20068;-57
2023/05/16 06:58:37;;;;;;;22.33;4.70;;;11.00;69.00;;;;;;5013767;28;20053;-53
2023/05/16 07:01:04;;;;;;;26.55;4.35;;;11.00;68.90;;;;;;5012428;28;20144;-53
2023/05/16 07:03:31;;;;;;;23.73;3.00;;;11.00;68.60;;;;;;5020611;28;20049;-58
2023/05/16 07:05:58;;;;;;;18.23;3.85;;;11.00;68.90;;;;;;5020132;28;20068;-58
2023/05/16 07:08:27;;;;;;;15.15;3.03;;;11.10;68.40;;;;;;5022730;28;20060;-54
2023/05/16 07:10:54;;;;;;;21.27;3.17;;;11.10;67.60;;;;;;5020708;28;20061;-57
2023/05/16 07:13:22;;;;;;;22.17;3.35;;;11.10;66.60;;;;;;5021008;28;20568;-58
2023/05/16 07:15:49;;;;;;;22.17;3.58;;;11.20;65.80;;;;;;5015747;28;20061;-57
2023/05/16 07:18:16;;;;;;;34.53;5.45;;;11.10;65.50;;;;;;5013625;28;20060;-54
2023/05/16 07:20:44;;;;;;;23.45;3.22;;;11.10;65.00;;;;;;5016981;28;20524;-57
2023/05/16 07:23:11;;;;;;;21.42;4.20;;;11.10;64.80;;;;;;5011407;28;20060;-57
2023/05/16 07:25:40;;;;;;;18.80;3.38;;;11.00;65.10;;;;;;5019098;28;20487;-55
2023/05/16 07:28:07;;;;;;;27.38;4.55;;;11.00;65.90;;;;;;5011655;28;20069;-58
2023/05/16 07:30:34;;;;;;;20.33;4.13;;;11.00;66.00;;;;;;5016669;28;20061;-55
2023/05/16 07:33:02;;;;;;;20.40;3.60;;;11.00;66.50;;;;;;5011812;28;20505;-58
2023/05/16 07:35:29;;;;;;;14.10;2.88;;;11.00;66.20;;;;;;5015324;28;20080;-58
2023/05/16 07:37:56;;;;;;;26.60;4.35;;;11.10;66.50;;;;;;5017885;28;20053;-58
2023/05/16 07:40:27;;;;;;;19.63;3.05;;;11.10;67.90;;;;;;5016178;28;20054;-57
2023/05/16 07:42:55;;;;;;;22.85;4.10;;;11.20;68.20;;;;;;5019415;28;20069;-57
2023/05/16 07:45:23;;;;;;;21.98;3.33;;;11.40;66.30;;;;;;5013092;28;20050;-58
2023/05/16 07:47:50;;;;;;;23.73;3.67;;;11.50;65.80;;;;;;5015815;28;20048;-55
2023/05/16 07:50:17;;;;;;;17.83;2.78;;;11.50;64.50;;;;;;5012224;28;20080;-48
2023/05/16 07:52:45;;;;;;;24.20;2.50;;;11.60;62.20;;;;;;5016387;28;20056;-56
2023/05/16 07:55:12;;;;;;;12.65;2.25;;;11.70;60.20;;;;;;5022308;28;20061;-52
2023/05/16 07:57:39;;;;;;;14.30;2.53;;;11.70;59.70;;;;;;5022996;28;20585;-55
2023/05/16 08:00:09;;;;;;;18.00;3.03;;;11.70;59.30;;;;;;5016183;28;20064;-57
2023/05/16 08:02:37;;;;;;;20.70;2.75;;;11.70;59.60;;;;;;5015323;28;21362;-58
2023/05/16 08:05:05;;;;;;;16.17;2.63;;;11.80;59.40;;;;;;5014479;28;20313;-51
2023/05/16 08:07:32;;;;;;;19.27;2.30;;;11.80;58.20;;;;;;5016372;28;20057;-51
2023/05/16 08:10:00;;;;;;;14.45;2.20;;;11.80;57.20;;;;;;5013530;28;20076;-57
2023/05/16 08:12:27;;;;;;;10.63;2.08;;;11.80;56.90;;;;;;5016508;28;20382;-53
2023/05/16 08:14:54;;;;;;;15.07;2.63;;;11.80;56.90;;;;;;5016860;28;20057;-55
2023/05/16 08:17:23;;;;;;;15.25;2.25;;;11.80;57.00;;;;;;5019846;28;20409;-58
2023/05/16 08:19:50;;;;;;;11.23;1.90;;;11.80;57.00;;;;;;5021364;28;20060;-51
2023/05/16 08:22:17;;;;;;;13.45;2.17;;;11.80;55.70;;;;;;5017536;28;20496;-50
2023/05/16 08:24:44;;;;;;;15.02;2.65;;;11.90;55.60;;;;;;5016745;28;20046;-50
2023/05/16 08:27:12;;;;;;;20.77;2.45;;;11.90;56.00;;;;;;5008613;28;20057;-52
2023/05/16 08:29:39;;;;;;;15.10;1.98;;;12.00;56.10;;;;;;5006243;28;20053;-47
2023/05/16 08:32:08;;;;;;;12.45;2.05;;;12.00;55.30;;;;;;5012735;28;20488;-51
2023/05/16 08:34:36;;;;;;;18.80;2.03;;;12.10;55.50;;;;;;5004152;28;20054;-53
2023/05/16 08:37:04;;;;;;;10.82;2.00;;;12.10;55.90;;;;;;5013176;28;20053;-51
2023/05/16 08:39:31;;;;;;;11.68;1.70;;;12.10;55.00;;;;;;5012355;28;20057;-47
2023/05/16 08:41:59;;;;;;;9.93;1.80;;;12.20;54.60;;;;;;5009507;28;20045;-55
2023/05/16 08:44:28;;;;;;;12.30;2.00;;;12.20;53.70;;;;;;5017734;28;20050;-45
2023/05/16 08:46:56;;;;;;;11.82;1.48;;;12.20;53.20;;;;;;5016192;28;20053;-49
2023/05/16 08:49:27;;;;;;;12.57;1.50;;;12.20;52.70;;;;;;5014908;28;20060;-52
2023/05/16 08:51:58;;;;;;;15.38;2.00;;;12.20;51.90;;;;;;5012821;28;20061;-52
2023/05/16 08:54:26;;;;;;;14.82;1.67;;;12.30;52.50;;;;;;5013057;28;20611;-48
2023/05/16 08:56:54;;;;;;;15.25;2.08;;;12.30;51.90;;;;;;5011225;28;20045;-50
2023/05/16 08:59:22;;;;;;;10.48;1.92;;;12.40;51.40;;;;;;5012700;28;20649;-56
2023/05/16 09:01:50;;;;;;;21.13;2.33;;;12.50;52.70;;;;;;5014234;28;20987;-57
2023/05/16 09:04:18;;;;;;;10.27;1.77;;;12.60;53.20;;;;;;5016524;28;20409;-57
2023/05/16 09:06:45;;;;;;;10.75;1.30;;;12.70;53.50;;;;;;5020085;28;20163;-57
2023/05/16 09:09:14;;;;;;;9.00;1.60;;;12.80;53.90;;;;;;5009974;28;20490;-53
2023/05/16 09:11:42;;;;;;;10.10;1.40;;;13.00;53.30;;;;;;5017014;28;20076;-57
2023/05/16 09:14:09;;;;;;;11.77;2.03;;;13.10;53.00;;;;;;5015038;28;20053;-55
2023/05/16 09:16:37;;;;;;;8.48;1.65;;;13.10;52.70;;;;;;5007259;28;20053;-54
2023/05/16 09:19:04;;;;;;;9.32;1.40;;;13.20;52.10;;;;;;5013457;28;20049;-57
2023/05/16 09:21:33;;;;;;;8.13;1.27;;;13.30;51.90;;;;;;5012228;28;20141;-54
2023/05/16 09:24:04;;;;;;;9.70;2.00;;;13.30;51.60;;;;;;5007440;28;20061;-54
2023/05/16 09:26:34;;;;;;;12.45;1.55;;;13.40;50.60;;;;;;5010443;28;20053;-55
2023/05/16 09:29:01;;;;;;;8.68;1.92;;;13.40;50.90;;;;;;5005089;28;20416;-56
2023/05/16 09:31:35;;;;;;;13.48;1.60;;;13.40;49.40;;;;;;5007882;28;20068;-54
2023/05/16 09:34:03;;;;;;;7.68;1.55;;;13.40;49.60;;;;;;5013457;28;20060;-50
2023/05/16 09:36:33;;;;;;;14.63;2.08;;;13.40;48.90;;;;;;5010236;28;20057;-54
2023/05/16 09:39:00;;;;;;;13.90;2.22;;;13.40;49.10;;;;;;5008749;28;20045;-55
2023/05/16 09:41:28;;;;;;;11.23;2.50;;;13.40;48.90;;;;;;5012692;28;20060;-55
2023/05/16 09:43:56;;;;;;;7.70;1.80;;;13.50;50.40;;;;;;5008388;28;20045;-56
2023/05/16 09:46:26;;;;;;;12.98;2.10;;;13.50;51.50;;;;;;5016055;28;20461;-55
2023/05/16 09:48:54;;;;;;;11.88;1.70;;;13.60;50.90;;;;;;5014361;28;20053;-53
2023/05/16 09:51:23;;;;;;;8.40;1.60;;;13.70;49.00;;;;;;5003954;28;20493;-53
2023/05/16 09:53:50;;;;;;;11.60;1.92;;;13.70;49.00;;;;;;5015198;28;20616;-56
2023/05/16 09:56:17;;;;;;;8.40;1.42;;;13.80;48.70;;;;;;5011117;28;20057;-54
2023/05/16 09:58:46;;;;;;;11.35;1.58;;;13.70;46.20;;;;;;5006506;28;20058;-57
2023/05/16 10:01:15;;;;;;;9.30;1.75;;;13.80;47.60;;;;;;5015387;28;20429;-56
2023/05/16 10:03:43;;;;;;;9.85;1.75;;;13.80;48.00;;;;;;5010785;28;20056;-58
2023/05/16 10:06:11;;;;;;;12.18;1.52;;;13.90;48.10;;;;;;5015768;28;20045;-57
2023/05/16 10:08:42;;;;;;;10.65;1.38;;;13.90;47.10;;;;;;5018663;28;20061;-58
2023/05/16 10:11:11;;;;;;;6.30;1.40;;;13.90;45.80;;;;;;5015637;28;20124;-53
2023/05/16 10:13:38;;;;;;;8.50;1.35;;;14.00;44.90;;;;;;5014846;28;20062;-56
2023/05/16 10:16:08;;;;;;;5.75;1.48;;;14.00;44.60;;;;;;5019274;28;20057;-57
2023/05/16 10:18:39;;;;;;;3.05;1.17;;;14.00;44.90;;;;;;5016310;28;20049;-56
2023/05/16 10:21:10;;;;;;;10.68;1.85;;;14.00;45.80;;;;;;5010353;28;20064;-50
2023/05/16 10:23:41;;;;;;;12.25;1.35;;;14.10;45.80;;;;;;5017918;28;20061;-56
2023/05/16 10:26:09;;;;;;;7.72;1.50;;;14.20;43.80;;;;;;5018575;28;20054;-57
2023/05/16 10:28:37;;;;;;;10.25;1.58;;;14.20;45.60;;;;;;5015267;28;20057;-58
2023/05/16 10:31:05;;;;;;;8.50;1.40;;;14.30;45.40;;;;;;5016244;28;20076;-59
2023/05/16 10:33:33;;;;;;;9.27;1.63;;;14.40;46.70;;;;;;5017755;28;20053;-56
2023/05/16 10:36:04;;;;;;;12.38;1.50;;;14.50;46.40;;;;;;5015889;28;20053;-57
2023/05/16 10:38:31;;;;;;;8.48;1.50;;;14.50;46.80;;;;;;5014034;28;20077;-56
2023/05/16 10:40:59;;;;;;;6.60;1.27;;;14.60;46.70;;;;;;5005351;28;20057;-57
2023/05/16 10:43:29;;;;;;;8.88;1.52;;;14.60;46.40;;;;;;5015023;28;20069;-57
2023/05/16 10:45:57;;;;;;;7.07;1.20;;;14.60;45.30;;;;;;5017061;28;20461;-55
2023/05/16 10:48:32;;;;;;;11.82;1.88;;;14.70;46.30;;;;;;5013774;28;20066;-57
2023/05/16 10:51:02;;;;;;;13.02;1.73;;;14.70;45.50;;;;;;5013667;28;20509;-51
2023/05/16 10:53:31;;;;;;;7.78;1.40;;;14.80;43.90;;;;;;5016566;28;20057;-58
2023/05/16 10:56:09;;;;;;;8.18;1.23;;;14.90;44.30;;;;;;5016670;28;20409;-57
2023/05/16 10:58:42;;;;;;;6.90;1.60;;;14.90;42.90;;;;;;5014957;28;20403;-56
2023/05/16 11:01:16;;;;;;;7.95;0.93;;;14.90;43.10;;;;;;5013980;28;20068;-57
2023/05/16 11:04:07;;;;;;;9.27;1.80;;;14.90;44.60;;;;;;5019767;28;20523;-57
2023/05/16 11:06:45;;;;;;;10.02;1.60;;;14.90;43.50;;;;;;5013548;28;20057;-58
2023/05/16 11:09:21;;;;;;;7.25;1.30;;;14.90;42.30;;;;;;5019031;28;20057;-58
2023/05/16 11:11:55;;;;;;;9.75;1.52;;;15.00;42.10;;;;;;5004234;28;20053;-47
2023/05/16 11:14:22;;;;;;;;;;;14.90;42.80;;;;;;5008655;28;20068;-57
2023/05/16 11:16:51;;;;;;;5.93;1.13;;;15.00;43.90;;;;;;5012602;28;19921;-57
2023/05/16 11:19:32;;;;;;;8.98;1.42;;;15.00;43.70;;;;;;5019376;28;20061;-57
2023/05/16 11:22:21;;;;;;;10.25;1.35;;;15.00;43.80;;;;;;5017688;28;20397;-57
2023/05/16 11:24:51;;;;;;;7.18;1.33;;;15.10;43.80;;;;;;5018501;28;20056;-58
2023/05/16 11:27:24;;;;;;;7.47;1.38;;;15.10;44.30;;;;;;5017177;28;20144;-57
2023/05/16 11:29:52;;;;;;;5.65;1.25;;;15.10;44.50;;;;;;5019337;28;20053;-56
2023/05/16 11:32:22;;;;;;;9.77;1.50;;;15.20;43.30;;;;;;5012403;28;20058;-56
2023/05/16 11:34:50;;;;;;;9.52;1.30;;;15.30;44.00;;;;;;5015552;28;20049;-57
2023/05/16 11:37:20;;;;;;;9.50;1.25;;;15.30;42.70;;;;;;5013978;28;20394;-56
2023/05/16 11:39:47;;;;;;;7.53;1.10;;;15.40;42.30;;;;;;5013630;28;20061;-59
2023/05/16 11:42:15;;;;;;;10.68;1.42;;;15.40;40.90;;;;;;5008714;28;20057;-56
2023/05/16 11:44:42;;;;;;;8.60;1.60;;;15.40;41.20;;;;;;5010536;28;20136;-58
2023/05/16 11:47:09;;;;;;;9.63;1.40;;;15.40;42.40;;;;;;5012072;28;20072;-58
2023/05/16 11:49:36;;;;;;;7.53;1.08;;;15.40;42.30;;;;;;5016851;28;20057;-54
2023/05/16 11:52:05;;;;;;;7.82;1.42;;;15.40;41.90;;;;;;5016552;28;20061;-57
2023/05/16 11:54:35;;;;;;;5.63;1.10;;;15.40;41.00;;;;;;5017156;28;20064;-58
2023/05/16 11:57:03;;;;;;;5.72;1.30;;;15.50;41.90;;;;;;5017257;28;20042;-57
2023/05/16 11:59:30;;;;;;;8.00;1.50;;;15.50;40.90;;;;;;5008055;28;20149;-57
2023/05/16 12:01:58;;;;;;;6.03;0.90;;;15.50;40.60;;;;;;5017165;28;20108;-58
2023/05/16 12:04:25;;;;;;;9.70;2.03;;;15.50;40.80;;;;;;5013021;28;20159;-57
2023/05/16 12:07:01;;;;;;;4.28;1.00;;;15.50;40.60;;;;;;5016970;28;20045;-56
2023/05/16 12:09:28;;;;;;;6.38;1.30;;;15.50;40.90;;;;;;5016363;28;20421;-53
2023/05/16 12:11:57;;;;;;;9.18;0.90;;;15.50;39.80;;;;;;5019084;28;20064;-56
2023/05/16 12:14:25;;;;;;;5.18;1.15;;;15.60;39.90;;;;;;5016526;28;20168;-58
2023/05/16 12:16:53;;;;;;;11.77;1.55;;;15.60;40.90;;;;;;5014565;28;20061;-57
2023/05/16 12:19:21;;;;;;;6.90;1.20;;;15.70;41.40;;;;;;4995034;28;20060;-57
2023/05/16 12:21:53;;;;;;;8.25;1.45;;;15.70;41.50;;;;;;5018100;28;20054;-56
2023/05/16 12:24:20;;;;;;;8.52;1.60;;;15.80;41.40;;;;;;5018190;28;20061;-56
2023/05/16 12:26:47;;;;;;;8.57;1.83;;;15.90;41.80;;;;;;5018904;28;20053;-58
2023/05/16 12:29:16;;;;;;;6.40;1.52;;;16.00;41.20;;;;;;5019638;28;20053;-58
2023/05/16 12:31:43;;;;;;;8.35;1.73;;;16.00;41.20;;;;;;5014052;28;20493;-58
2023/05/16 12:34:17;;;;;;;4.22;1.20;;;16.00;40.90;;;;;;5017035;28;20374;-58
2023/05/16 12:36:45;;;;;;;8.13;1.40;;;16.00;39.60;;;;;;5015995;28;20049;-59
2023/05/16 12:39:13;;;;;;;8.25;1.20;;;16.00;40.50;;;;;;5016195;28;20813;-55
2023/05/16 12:41:42;;;;;;;7.03;1.48;;;16.00;40.70;;;;;;5016208;28;20049;-58
2023/05/16 12:44:15;;;;;;;6.60;1.35;;;16.00;40.40;;;;;;5016882;28;20064;-57
2023/05/16 12:46:45;;;;;;;8.90;1.40;;;16.00;40.60;;;;;;5006743;28;20060;-57